createdAt,value
2018-07-27T00:00:11.758Z,7.93
2018-07-27T00:02:40.146Z,8.13
2018-07-27T00:05:08.925Z,8.10
2018-07-27T00:07:37.407Z,8.10
2018-07-27T00:10:05.957Z,8.53
2018-07-27T00:12:34.406Z,8.00
2018-07-27T00:15:02.767Z,8.00
2018-07-27T00:17:31.150Z,7.67
2018-07-27T00:19:59.538Z,8.07
2018-07-27T00:22:27.919Z,8.07
2018-07-27T00:24:56.251Z,11.70
2018-07-27T00:27:24.633Z,10.10
2018-07-27T00:29:53.000Z,9.20
2018-07-27T00:32:21.345Z,9.17
2018-07-27T00:34:49.661Z,8.27
2018-07-27T00:37:18.058Z,8.93
2018-07-27T00:39:46.393Z,9.00
2018-07-27T00:42:14.761Z,8.80
2018-07-27T00:44:43.090Z,8.47
2018-07-27T00:47:11.512Z,7.80
2018-07-27T00:49:39.865Z,8.33
2018-07-27T00:52:08.276Z,9.27
2018-07-27T00:54:36.657Z,8.37
2018-07-27T00:57:05.028Z,8.30
2018-07-27T00:59:33.375Z,8.07
2018-07-27T01:02:01.761Z,8.40
2018-07-27T01:04:30.183Z,9.13
2018-07-27T01:06:58.515Z,8.63
2018-07-27T01:09:26.860Z,9.20
2018-07-27T01:11:55.258Z,8.60
2018-07-27T01:14:23.623Z,9.10
2018-07-27T01:16:51.940Z,8.00
2018-07-27T01:19:20.348Z,8.93
2018-07-27T01:21:48.763Z,9.00
2018-07-27T01:24:17.115Z,8.27
2018-07-27T01:26:46.457Z,9.00
2018-07-27T01:29:16.565Z,9.03
2018-07-27T01:31:44.922Z,8.77
2018-07-27T01:34:13.300Z,9.43
2018-07-27T01:36:41.747Z,8.53
2018-07-27T01:39:12.672Z,9.57
2018-07-27T01:41:41.645Z,8.90
2018-07-27T01:44:10.361Z,8.77
2018-07-27T01:46:39.336Z,8.53
2018-07-27T01:49:08.566Z,8.30
2018-07-27T01:51:37.006Z,8.13
2018-07-27T01:54:05.464Z,9.00
2018-07-27T01:56:34.172Z,9.40
2018-07-27T01:59:02.545Z,9.83
2018-07-27T02:01:30.882Z,8.70
2018-07-27T02:03:59.245Z,9.30
2018-07-27T02:06:27.607Z,9.40
2018-07-27T02:08:56.062Z,8.83
2018-07-27T02:11:24.425Z,8.80
2018-07-27T02:13:52.797Z,9.80
2018-07-27T02:16:21.149Z,8.70
2018-07-27T02:18:49.637Z,8.30
2018-07-27T02:21:18.093Z,9.13
2018-07-27T02:23:46.461Z,8.50
2018-07-27T02:26:14.837Z,9.47
2018-07-27T02:28:43.237Z,8.87
2018-07-27T02:31:11.594Z,8.90
2018-07-27T02:33:39.965Z,8.67
2018-07-27T02:36:08.305Z,8.73
2018-07-27T02:38:36.670Z,9.27
2018-07-27T02:41:05.041Z,9.17
2018-07-27T02:43:33.382Z,9.50
2018-07-27T02:46:01.791Z,8.80
2018-07-27T02:48:30.251Z,8.80
2018-07-27T02:50:58.612Z,8.60
2018-07-27T02:53:27.011Z,9.33
2018-07-27T02:55:55.340Z,9.27
2018-07-27T02:58:23.734Z,9.27
2018-07-27T03:00:52.177Z,9.20
2018-07-27T03:03:20.534Z,9.00
2018-07-27T03:05:48.877Z,8.50
2018-07-27T03:08:17.241Z,9.20
2018-07-27T03:10:45.600Z,9.67
2018-07-27T03:13:13.986Z,9.03
2018-07-27T03:15:42.381Z,9.23
2018-07-27T03:18:10.724Z,8.87
2018-07-27T03:20:39.123Z,9.80
2018-07-27T03:23:07.587Z,9.50
2018-07-27T03:25:35.933Z,9.30
2018-07-27T03:28:04.323Z,9.20
2018-07-27T03:30:32.697Z,8.63
2018-07-27T03:33:01.064Z,9.80
2018-07-27T03:35:29.425Z,9.57
2018-07-27T03:37:57.837Z,9.50
2018-07-27T03:40:26.215Z,9.37
2018-07-27T03:42:54.585Z,9.03
2018-07-27T03:45:22.909Z,9.13
2018-07-27T03:47:51.305Z,9.77
2018-07-27T03:50:19.701Z,9.80
2018-07-27T03:52:48.077Z,9.93
2018-07-27T03:55:16.483Z,9.27
2018-07-27T03:57:44.835Z,9.90
2018-07-27T04:00:13.957Z,9.73
2018-07-27T04:02:42.640Z,9.80
2018-07-27T04:05:11.098Z,9.47
2018-07-27T04:07:39.535Z,9.70
2018-07-27T04:10:07.967Z,9.30
2018-07-27T04:12:36.336Z,9.80
2018-07-27T04:15:05.236Z,10.27
2018-07-27T04:17:33.512Z,9.73
2018-07-27T04:20:01.892Z,9.70
2018-07-27T04:22:30.315Z,9.53
2018-07-27T04:24:58.600Z,10.83
2018-07-27T04:27:27.072Z,9.07
2018-07-27T04:29:55.448Z,9.83
2018-07-27T04:32:23.834Z,10.40
2018-07-27T04:34:52.283Z,10.60
2018-07-27T04:37:20.697Z,10.70
2018-07-27T04:39:49.119Z,11.00
2018-07-27T04:42:17.547Z,10.53
2018-07-27T04:44:45.953Z,10.33
2018-07-27T04:47:14.319Z,9.67
2018-07-27T04:49:42.681Z,10.13
2018-07-27T04:52:11.060Z,9.53
2018-07-27T04:54:39.490Z,10.07
2018-07-27T04:57:07.915Z,10.43
2018-07-27T04:59:36.296Z,11.37
2018-07-27T05:02:04.787Z,11.10
2018-07-27T05:04:33.212Z,10.33
2018-07-27T05:07:01.592Z,10.40
2018-07-27T05:09:29.974Z,9.93
2018-07-27T05:11:58.369Z,9.97
2018-07-27T05:14:26.744Z,9.97
2018-07-27T05:16:55.139Z,10.37
2018-07-27T05:19:23.553Z,9.70
2018-07-27T05:21:51.968Z,9.77
2018-07-27T05:24:20.319Z,8.83
2018-07-27T05:26:48.725Z,9.50
2018-07-27T05:29:17.194Z,8.30
2018-07-27T05:31:45.606Z,10.60
2018-07-27T05:34:14.037Z,8.87
2018-07-27T05:36:42.354Z,9.37
2018-07-27T05:39:11.881Z,8.63
2018-07-27T05:41:40.284Z,8.67
2018-07-27T05:44:09.019Z,9.40
2018-07-27T05:46:37.423Z,9.20
2018-07-27T05:49:05.874Z,8.77
2018-07-27T05:51:34.236Z,8.00
2018-07-27T05:54:02.664Z,9.40
2018-07-27T05:56:31.039Z,8.77
2018-07-27T05:58:59.422Z,8.90
2018-07-27T06:01:27.871Z,7.90
2018-07-27T06:03:56.358Z,8.30
2018-07-27T06:06:24.715Z,8.60
2018-07-27T06:08:53.082Z,8.50
2018-07-27T06:11:21.538Z,7.90
2018-07-27T06:13:49.929Z,8.30
2018-07-27T06:16:18.349Z,8.60
2018-07-27T06:18:46.732Z,7.53
2018-07-27T06:21:15.094Z,8.13
2018-07-27T06:23:43.478Z,8.23
2018-07-27T06:26:11.912Z,7.20
2018-07-27T06:28:40.341Z,8.00
2018-07-27T06:31:08.790Z,7.20
2018-07-27T06:33:37.172Z,8.33
2018-07-27T06:36:05.600Z,7.43
2018-07-27T06:38:33.971Z,8.10
2018-07-27T06:41:02.379Z,7.43
2018-07-27T06:43:30.736Z,7.60
2018-07-27T06:45:59.109Z,8.10
2018-07-27T06:48:27.476Z,8.27
2018-07-27T06:50:55.872Z,7.27
2018-07-27T06:53:24.321Z,7.90
2018-07-27T06:55:52.737Z,8.10
2018-07-27T06:58:21.111Z,7.67
2018-07-27T07:00:49.562Z,8.23
2018-07-27T07:03:17.923Z,7.67
2018-07-27T07:05:46.273Z,7.90
2018-07-27T07:08:14.838Z,7.50
2018-07-27T07:10:43.205Z,8.07
2018-07-27T07:13:11.534Z,7.33
2018-07-27T07:15:39.963Z,7.97
2018-07-27T07:18:08.348Z,8.47
2018-07-27T07:20:36.744Z,8.03
2018-07-27T07:23:05.196Z,7.60
2018-07-27T07:25:33.679Z,8.07
2018-07-27T07:28:02.200Z,7.87
2018-07-27T07:30:30.597Z,7.70
2018-07-27T07:32:58.976Z,8.80
2018-07-27T07:35:27.361Z,8.37
2018-07-27T07:37:55.760Z,7.97
2018-07-27T07:40:24.117Z,7.83
2018-07-27T07:42:52.499Z,24.03
2018-07-27T07:45:20.576Z,26.70
2018-07-27T07:47:48.997Z,16.60
2018-07-27T07:50:17.347Z,7.80
2018-07-27T07:52:45.689Z,7.57
2018-07-27T07:55:14.068Z,7.70
2018-07-27T07:57:42.433Z,7.87
2018-07-27T08:00:10.866Z,7.63
2018-07-27T08:02:38.917Z,16.27
2018-07-27T08:05:07.054Z,8.93
2018-07-27T08:07:35.481Z,8.93
2018-07-27T08:10:04.550Z,7.13
2018-07-27T08:12:33.019Z,7.47
2018-07-27T08:15:01.972Z,7.07
2018-07-27T08:17:30.398Z,7.20
2018-07-27T08:19:58.816Z,7.03
2018-07-27T08:22:27.252Z,7.70
2018-07-27T08:24:55.582Z,7.90
2018-07-27T08:27:24.034Z,7.60
2018-07-27T08:29:52.432Z,8.03
2018-07-27T08:32:21.424Z,7.93
2018-07-27T08:34:49.798Z,9.73
2018-07-27T08:37:18.217Z,7.60
2018-07-27T08:39:46.647Z,7.17
2018-07-27T08:42:15.027Z,7.10
2018-07-27T08:44:43.195Z,7.00
2018-07-27T08:47:11.408Z,7.37
2018-07-27T08:49:39.786Z,7.40
2018-07-27T08:52:08.220Z,7.03
2018-07-27T08:54:36.799Z,7.60
2018-07-27T08:57:05.553Z,7.37
2018-07-27T08:59:34.716Z,6.93
2018-07-27T09:02:03.567Z,7.63
2018-07-27T09:04:32.465Z,7.30
2018-07-27T09:07:00.891Z,7.03
2018-07-27T09:09:29.336Z,7.20
2018-07-27T09:11:57.726Z,7.73
2018-07-27T09:14:26.159Z,6.93
2018-07-27T09:16:55.646Z,7.57
2018-07-27T09:19:25.329Z,7.73
2018-07-27T09:21:53.709Z,7.43
2018-07-27T09:24:22.726Z,7.63
2018-07-27T09:26:51.102Z,7.67
2018-07-27T09:29:19.503Z,8.50
2018-07-27T09:31:47.933Z,7.70
2018-07-27T09:34:16.394Z,8.03
2018-07-27T09:36:44.732Z,8.17
2018-07-27T09:39:13.139Z,7.33
2018-07-27T09:41:41.533Z,7.50
2018-07-27T09:44:10.009Z,7.67
2018-07-27T09:46:38.439Z,8.00
2018-07-27T09:49:06.581Z,7.60
2018-07-27T09:51:35.008Z,7.40
2018-07-27T09:54:03.386Z,7.43
2018-07-27T09:56:31.797Z,7.80
2018-07-27T09:59:00.173Z,7.77
2018-07-27T10:01:29.364Z,7.47
2018-07-27T10:03:57.767Z,7.70
2018-07-27T10:06:25.847Z,7.57
2018-07-27T10:08:54.279Z,7.20
2018-07-27T10:11:22.749Z,7.67
2018-07-27T10:13:51.152Z,7.90
2018-07-27T10:16:19.558Z,7.73
2018-07-27T10:18:47.979Z,7.60
2018-07-27T10:21:16.472Z,7.60
2018-07-27T10:23:45.740Z,7.83
2018-07-27T10:26:14.253Z,6.80
2018-07-27T10:28:42.724Z,6.23
2018-07-27T10:31:11.209Z,6.37
2018-07-27T10:33:39.641Z,5.93
2018-07-27T10:36:08.170Z,5.83
2018-07-27T10:38:36.660Z,5.57
2018-07-27T10:41:05.050Z,5.60
2018-07-27T10:43:33.458Z,5.27
2018-07-27T10:46:01.905Z,4.80
2018-07-27T10:48:30.330Z,4.57
2018-07-27T10:50:58.458Z,5.00
2018-07-27T10:53:26.911Z,5.73
2018-07-27T10:55:55.392Z,4.50
2018-07-27T10:58:23.951Z,4.20
2018-07-27T11:00:52.460Z,4.40
2018-07-27T11:03:20.904Z,4.43
2018-07-27T11:05:49.380Z,4.50
2018-07-27T11:08:18.343Z,4.57
2018-07-27T11:10:47.557Z,4.30
2018-07-27T11:13:16.316Z,4.13
2018-07-27T11:15:44.771Z,4.27
2018-07-27T11:18:13.980Z,4.20
2018-07-27T11:20:42.420Z,4.10
2018-07-27T11:23:11.218Z,4.10
2018-07-27T11:25:39.782Z,3.73
2018-07-27T11:28:09.721Z,4.00
2018-07-27T11:30:38.300Z,3.83
2018-07-27T11:33:06.758Z,4.00
2018-07-27T11:35:35.214Z,3.30
2018-07-27T11:38:03.726Z,3.90
2018-07-27T11:40:32.244Z,4.23
2018-07-27T11:43:00.712Z,4.00
2018-07-27T11:45:28.889Z,3.67
2018-07-27T11:47:57.520Z,3.60
2018-07-27T11:50:26.009Z,3.80
2018-07-27T11:52:54.434Z,2.90
2018-07-27T11:55:22.642Z,3.80
2018-07-27T11:57:51.132Z,3.10
2018-07-27T12:00:20.757Z,3.43
2018-07-27T12:02:49.412Z,3.00
2018-07-27T12:05:17.869Z,2.90
2018-07-27T12:07:46.374Z,3.40
2018-07-27T12:10:16.219Z,2.60
2018-07-27T12:12:44.725Z,3.20
2018-07-27T12:15:13.318Z,2.30
2018-07-27T12:17:41.603Z,2.13
2018-07-27T12:20:10.317Z,2.17
2018-07-27T12:22:38.764Z,2.67
2018-07-27T12:25:07.374Z,2.50
2018-07-27T12:27:35.837Z,2.15
2018-07-27T12:30:04.882Z,2.10
2018-07-27T12:32:33.393Z,2.20
2018-07-27T12:35:01.841Z,2.37
2018-07-27T12:37:30.237Z,2.50
2018-07-27T12:39:58.730Z,3.10
2018-07-27T12:42:27.193Z,3.00
2018-07-27T12:44:55.643Z,3.00
2018-07-27T12:47:24.116Z,2.83
2018-07-27T12:49:52.553Z,2.77
2018-07-27T12:52:21.125Z,2.70
2018-07-27T12:54:49.575Z,2.70
2018-07-27T12:57:18.090Z,2.90
2018-07-27T12:59:46.546Z,5.33
2018-07-27T13:02:15.029Z,4.10
2018-07-27T13:04:43.575Z,2.50
2018-07-27T13:07:12.028Z,2.20
2018-07-27T13:09:41.714Z,2.30
2018-07-27T13:12:11.928Z,2.30
2018-07-27T13:14:42.249Z,2.37
2018-07-27T13:17:10.834Z,2.50
2018-07-27T13:19:39.312Z,2.60
2018-07-27T13:22:07.850Z,2.87
2018-07-27T13:25:02.918Z,2.70
2018-07-27T13:27:04.782Z,2.95
2018-07-27T13:29:33.393Z,2.72
2018-07-27T13:32:01.898Z,2.95
2018-07-27T13:34:55.917Z,3.22
2018-07-27T13:37:25.683Z,2.92
2018-07-27T13:42:25.351Z,3.60
2018-07-27T13:44:53.876Z,3.53
2018-07-27T13:47:22.573Z,4.45
2018-07-27T13:49:50.708Z,4.35
2018-07-27T13:52:19.259Z,3.80
2018-07-27T13:54:47.698Z,3.65
2018-07-27T14:14:31.417Z,3.30
2018-07-27T14:16:59.928Z,3.57
2018-07-27T14:19:29.247Z,3.65
2018-07-27T14:21:57.790Z,3.30
2018-07-27T14:24:26.264Z,3.58
2018-07-27T14:26:54.779Z,3.22
2018-07-27T14:29:23.214Z,3.13
2018-07-27T14:31:51.741Z,3.40
2018-07-27T14:34:20.212Z,3.50
2018-07-27T14:36:48.691Z,3.80
2018-07-27T14:39:17.278Z,3.70
2018-07-27T14:41:45.764Z,3.67
2018-07-27T14:44:14.257Z,3.57
2018-07-27T14:46:42.680Z,3.67
2018-07-27T14:49:15.451Z,3.40
2018-07-27T14:51:44.061Z,3.50
2018-07-27T14:54:13.640Z,3.00
2018-07-27T14:56:42.814Z,2.90
2018-07-27T14:59:11.794Z,3.90
2018-07-27T15:01:40.927Z,3.33
2018-07-27T15:04:10.425Z,3.67
2018-07-27T15:06:39.056Z,2.80
2018-07-27T15:09:10.090Z,3.30
2018-07-27T15:11:38.704Z,3.50
2018-07-27T15:14:07.209Z,3.30
2018-07-27T15:16:35.444Z,3.90
2018-07-27T15:19:03.933Z,3.50
2018-07-27T15:21:32.482Z,2.70
2018-07-27T15:24:01.010Z,3.50
2018-07-27T15:26:29.685Z,2.70
2018-07-27T15:28:58.791Z,3.23
2018-07-27T15:31:27.278Z,3.20
2018-07-27T15:33:55.739Z,3.50
2018-07-27T15:36:24.265Z,3.20
2018-07-27T15:38:52.705Z,3.13
2018-07-27T15:41:21.203Z,3.50
2018-07-27T15:43:49.660Z,3.17
2018-07-27T15:46:18.422Z,3.10
2018-07-27T15:48:46.871Z,2.80
2018-07-27T15:51:15.047Z,3.30
2018-07-27T15:53:43.589Z,3.07
2018-07-27T15:56:12.055Z,3.23
2018-07-27T15:58:40.511Z,3.00
2018-07-27T16:01:09.107Z,2.70
2018-07-27T16:03:37.573Z,2.90
2018-07-27T16:06:06.270Z,2.90
2018-07-27T16:08:34.827Z,3.20
2018-07-27T16:11:02.948Z,2.90
2018-07-27T16:13:31.488Z,3.03
2018-07-27T16:15:59.944Z,3.23
2018-07-27T16:18:28.420Z,3.20
2018-07-27T16:20:56.913Z,2.90
2018-07-27T16:23:25.367Z,2.60
2018-07-27T16:25:53.905Z,3.03
2018-07-27T16:28:22.320Z,2.93
2018-07-27T16:30:50.719Z,2.80
2018-07-27T16:33:19.252Z,3.10
2018-07-27T16:35:47.676Z,2.83
2018-07-27T16:38:16.147Z,2.80
2018-07-27T16:40:44.660Z,3.20
2018-07-27T16:43:13.320Z,3.40
2018-07-27T16:45:41.731Z,3.17
2018-07-27T16:48:09.860Z,3.30
2018-07-27T16:50:38.368Z,3.07
2018-07-27T16:53:06.821Z,3.53
2018-07-27T16:55:35.204Z,3.80
2018-07-27T16:58:03.693Z,4.97
2018-07-27T17:00:32.204Z,6.30
2018-07-27T17:03:00.657Z,3.60
2018-07-27T17:05:29.509Z,3.20
2018-07-27T17:07:58.771Z,3.10
2018-07-27T17:10:28.003Z,3.53
2018-07-27T17:12:57.073Z,3.53
2018-07-27T17:15:25.604Z,3.27
2018-07-27T17:17:54.154Z,3.80
2018-07-27T17:20:22.874Z,3.80
2018-07-27T17:22:51.351Z,3.57
2018-07-27T17:25:20.478Z,3.13
2018-07-27T17:27:49.829Z,3.37
2018-07-27T17:30:18.979Z,3.60
2018-07-27T17:32:49.031Z,3.40
2018-07-27T17:35:17.167Z,3.50
2018-07-27T17:37:45.689Z,3.30
2018-07-27T17:40:15.454Z,3.50
2018-07-27T17:42:46.344Z,3.60
2018-07-27T17:45:17.752Z,3.30
2018-07-27T17:47:46.653Z,3.30
2018-07-27T17:50:16.037Z,3.20
2018-07-27T17:52:45.377Z,3.40
2018-07-27T17:55:15.008Z,3.60
2018-07-27T17:57:45.059Z,3.60
2018-07-27T18:00:14.848Z,3.40
2018-07-27T18:02:43.269Z,3.00
2018-07-27T18:05:12.006Z,3.20
2018-07-27T18:07:41.435Z,3.70
2018-07-27T18:10:10.839Z,4.10
2018-07-27T18:12:40.593Z,3.03
2018-07-27T18:15:09.720Z,3.10
2018-07-27T18:17:38.906Z,3.20
2018-07-27T18:20:09.441Z,3.40
2018-07-27T18:22:38.289Z,3.30
2018-07-27T18:25:09.735Z,3.60
2018-07-27T18:27:38.691Z,3.50
2018-07-27T18:30:07.703Z,3.60
2018-07-27T18:32:36.393Z,3.70
2018-07-27T18:35:05.392Z,4.10
2018-07-27T18:37:33.789Z,4.13
2018-07-27T18:40:02.559Z,4.70
2018-07-27T18:42:31.296Z,4.20
2018-07-27T18:45:00.170Z,4.67
2018-07-27T18:47:28.809Z,4.70
2018-07-27T18:49:57.197Z,3.80
2018-07-27T18:52:25.696Z,4.60
2018-07-27T18:54:54.093Z,3.90
2018-07-27T18:57:22.577Z,4.53
2018-07-27T18:59:52.163Z,4.63
2018-07-27T19:02:20.947Z,5.10
2018-07-27T19:04:49.604Z,4.30
2018-07-27T19:07:18.132Z,4.80
2018-07-27T19:09:46.500Z,4.80
2018-07-27T19:12:14.890Z,4.87
2018-07-27T19:14:43.285Z,5.30
2018-07-27T19:17:12.033Z,5.35
2018-07-27T19:19:40.676Z,4.87
2018-07-27T19:22:09.248Z,5.80
2018-07-27T19:24:37.661Z,5.08
2018-07-27T19:27:06.162Z,5.70
2018-07-27T19:29:34.613Z,5.70
2018-07-27T19:32:03.206Z,5.80
2018-07-27T19:34:31.806Z,6.10
2018-07-27T19:37:00.417Z,5.47
2018-07-27T19:39:28.920Z,5.70
2018-07-27T19:41:57.336Z,5.87
2018-07-27T19:44:25.820Z,5.90
2018-07-27T19:46:54.248Z,5.73
2018-07-27T19:49:22.825Z,6.30
2018-07-27T19:51:51.528Z,6.28
2018-07-27T19:54:20.207Z,6.50
2018-07-27T19:56:48.600Z,6.10
2018-07-27T19:59:17.031Z,5.97
2018-07-27T20:01:45.401Z,6.12
2018-07-27T20:04:13.854Z,6.37
2018-07-27T20:09:11.033Z,6.80
2018-07-27T20:11:39.646Z,7.00
2018-07-27T20:16:35.780Z,6.92
2018-07-27T20:19:04.206Z,7.10
2018-07-27T20:21:32.947Z,7.07
2018-07-27T20:24:01.662Z,6.80
2018-07-27T20:26:30.461Z,7.20
2018-07-27T20:28:58.874Z,6.90
2018-07-27T20:31:27.347Z,7.20
2018-07-27T20:33:55.890Z,6.90
2018-07-27T20:36:24.604Z,10.18
2018-07-27T20:38:53.111Z,8.75
2018-07-27T20:41:21.817Z,15.20
2018-07-27T20:43:50.388Z,8.27
2018-07-27T20:46:18.795Z,7.43
2018-07-27T20:48:47.182Z,7.90
2018-07-27T20:51:15.630Z,7.63
2018-07-27T20:53:44.043Z,7.83
2018-07-27T20:56:12.706Z,7.20
2018-07-27T20:58:41.450Z,7.80
2018-07-27T21:01:10.000Z,7.70
2018-07-27T21:03:38.405Z,7.30
2018-07-27T21:06:06.817Z,7.57
2018-07-27T21:08:35.191Z,6.60
2018-07-27T21:11:03.745Z,7.00
2018-07-27T21:13:32.396Z,7.60
2018-07-27T21:16:01.067Z,8.00
2018-07-27T21:18:29.479Z,7.90
2018-07-27T21:20:57.881Z,7.13
2018-07-27T21:23:27.221Z,7.80
2018-07-27T21:25:56.412Z,7.90
2018-07-27T21:28:24.859Z,7.80
2018-07-27T21:30:53.514Z,7.63
2018-07-27T21:33:21.967Z,7.87
2018-07-27T21:35:52.026Z,7.90
2018-07-27T21:38:21.116Z,7.93
2018-07-27T21:40:50.299Z,7.30
2018-07-27T21:43:18.857Z,8.47
2018-07-27T21:45:47.419Z,7.90
2018-07-27T21:48:15.734Z,7.70
2018-07-27T21:50:44.878Z,7.30
2018-07-27T21:53:13.143Z,7.10
2018-07-27T21:55:41.526Z,8.17
2018-07-27T21:58:09.986Z,7.93
2018-07-27T22:00:38.418Z,7.87
2018-07-27T22:03:06.909Z,7.33
2018-07-27T22:05:35.483Z,8.07
2018-07-27T22:08:03.925Z,8.20
2018-07-27T22:10:32.341Z,7.57
2018-07-27T22:13:00.791Z,8.43
2018-07-27T22:15:29.208Z,7.73
2018-07-27T22:17:57.628Z,7.80
2018-07-27T22:20:26.105Z,8.70
2018-07-27T22:22:54.492Z,8.60
2018-07-27T22:25:22.909Z,7.80
2018-07-27T22:27:51.328Z,8.57
2018-07-27T22:30:19.748Z,8.20
2018-07-27T22:32:48.187Z,8.47
2018-07-27T22:35:17.973Z,9.10
2018-07-27T22:37:46.420Z,8.47
2018-07-27T22:40:14.484Z,9.70
2018-07-27T22:42:42.917Z,9.50
2018-07-27T22:45:11.430Z,9.00
2018-07-27T22:47:39.835Z,9.00
2018-07-27T22:50:08.237Z,8.87
2018-07-27T22:52:40.036Z,9.10
2018-07-27T22:55:11.082Z,8.80
2018-07-27T22:57:40.510Z,9.03
2018-07-27T23:00:12.219Z,9.20
2018-07-27T23:02:41.025Z,11.30
2018-07-27T23:05:09.452Z,25.60
2018-07-27T23:07:38.291Z,16.77
2018-07-27T23:10:07.459Z,14.83
2018-07-27T23:12:35.831Z,13.30
2018-07-27T23:15:04.563Z,11.13
2018-07-27T23:17:32.838Z,10.90
2018-07-27T23:20:01.196Z,10.90
2018-07-27T23:22:29.608Z,11.10
2018-07-27T23:24:58.089Z,11.60
2018-07-27T23:27:26.505Z,10.70
2018-07-27T23:29:54.929Z,9.47
2018-07-27T23:32:23.331Z,9.80
2018-07-27T23:34:51.698Z,8.80
2018-07-27T23:37:20.081Z,9.20
2018-07-27T23:39:48.473Z,9.87
2018-07-27T23:42:16.905Z,9.20
2018-07-27T23:44:45.283Z,10.00
2018-07-27T23:47:13.866Z,9.50
2018-07-27T23:49:42.240Z,10.10
2018-07-27T23:52:10.624Z,10.23
2018-07-27T23:54:39.028Z,10.10
2018-07-27T23:57:07.617Z,10.03
2018-07-27T23:59:36.088Z,11.20
